Аэропорт: Саратов-Центральный. Саратов

ICAO: UWSS

METAR:
2019/05/26 14:00
UWSS 261400Z 20004G09MPS 9999 SCT050CB BKN100 22/13 Q1006 R12/010095 NOSIG RMK QFE743
METAR:
2016/08/14 06:12
TAF TAF UWSS 140500Z 1406/1418 03003MPS 9999 SCT040CB 
      TEMPO 1406/1418 VRB18MPS 2100 -TSRAGR SQ BKN007 BKN030CB